createdAt,value
2023-10-31T00:00:48.475Z,0.00
2023-10-31T00:01:48.455Z,0.00
2023-10-31T00:02:48.608Z,0.00
2023-10-31T00:03:48.741Z,0.00
2023-10-31T00:04:48.403Z,0.00
2023-10-31T00:05:49.050Z,0.00
2023-10-31T00:06:49.083Z,0.00
2023-10-31T00:07:48.388Z,0.00
2023-10-31T00:08:48.344Z,0.00
2023-10-31T00:09:48.750Z,0.00
2023-10-31T00:10:48.348Z,0.00
2023-10-31T00:11:48.337Z,0.00
2023-10-31T00:12:48.323Z,0.00
2023-10-31T00:13:48.383Z,0.00
2023-10-31T00:14:48.435Z,0.00
2023-10-31T00:15:48.631Z,0.00
2023-10-31T00:16:48.301Z,0.00
2023-10-31T00:17:48.787Z,0.00
2023-10-31T00:18:48.524Z,0.00
2023-10-31T00:19:48.262Z,0.00
2023-10-31T00:20:49.108Z,0.00
2023-10-31T00:21:48.217Z,0.00
2023-10-31T00:22:48.224Z,0.00
2023-10-31T00:23:48.198Z,0.00
2023-10-31T00:24:48.181Z,0.00
2023-10-31T00:25:48.347Z,0.00
2023-10-31T00:26:49.016Z,0.00
2023-10-31T00:27:48.143Z,0.00
2023-10-31T00:28:48.173Z,0.00
2023-10-31T00:29:48.145Z,0.00
2023-10-31T00:30:48.599Z,0.00
2023-10-31T00:31:48.550Z,0.00
2023-10-31T00:32:48.106Z,0.00
2023-10-31T00:33:49.038Z,0.00
2023-10-31T00:34:48.101Z,0.00
2023-10-31T00:35:48.069Z,0.00
2023-10-31T00:36:48.049Z,0.00
2023-10-31T00:37:48.060Z,0.00
2023-10-31T00:38:48.486Z,0.00
2023-10-31T00:39:48.140Z,0.00
2023-10-31T00:40:48.569Z,0.00
2023-10-31T00:41:48.998Z,0.00
2023-10-31T00:42:48.382Z,0.00
2023-10-31T00:43:48.035Z,0.00
2023-10-31T00:44:48.160Z,0.00
2023-10-31T00:45:48.022Z,0.00
2023-10-31T00:46:48.554Z,0.00
2023-10-31T00:47:48.826Z,0.00
2023-10-31T00:48:48.255Z,0.00
2023-10-31T00:49:49.076Z,0.00
2023-10-31T00:50:48.099Z,0.00
2023-10-31T00:51:48.082Z,0.00
2023-10-31T00:52:48.106Z,0.00
2023-10-31T00:53:48.382Z,0.00
2023-10-31T00:54:47.877Z,0.00
2023-10-31T00:55:47.890Z,0.00
2023-10-31T00:56:48.030Z,0.00
2023-10-31T00:57:47.863Z,0.00
2023-10-31T00:58:47.890Z,0.00
2023-10-31T00:59:47.832Z,0.00
2023-10-31T01:00:47.823Z,0.00
2023-10-31T01:01:47.852Z,0.00
2023-10-31T01:02:48.008Z,0.00
2023-10-31T01:03:47.861Z,0.00
2023-10-31T01:04:48.351Z,0.00
2023-10-31T01:05:47.757Z,0.00
2023-10-31T01:06:47.732Z,0.00
2023-10-31T01:07:47.757Z,0.00
2023-10-31T01:08:47.706Z,0.00
2023-10-31T01:09:47.713Z,0.00
2023-10-31T01:10:47.797Z,0.00
2023-10-31T01:11:47.797Z,0.00
2023-10-31T01:12:47.654Z,0.00
2023-10-31T01:13:47.686Z,0.00
2023-10-31T01:14:47.823Z,0.00
2023-10-31T01:15:47.856Z,0.00
2023-10-31T01:16:47.636Z,0.00
2023-10-31T01:17:47.840Z,0.00
2023-10-31T01:18:47.627Z,0.00
2023-10-31T01:19:47.605Z,0.00
2023-10-31T01:20:47.910Z,0.00
2023-10-31T01:21:47.617Z,0.00
2023-10-31T01:22:47.578Z,0.00
2023-10-31T01:23:47.560Z,0.00
2023-10-31T01:24:47.545Z,0.00
2023-10-31T01:25:47.575Z,0.00
2023-10-31T01:26:47.608Z,0.00
2023-10-31T01:27:47.513Z,0.00
2023-10-31T01:28:47.517Z,0.00
2023-10-31T01:29:47.507Z,0.00
2023-10-31T01:30:47.479Z,0.00
2023-10-31T01:31:56.347Z,0.00
2023-10-31T01:32:49.223Z,0.00
2023-10-31T01:33:47.719Z,0.00
2023-10-31T01:34:47.461Z,0.00
2023-10-31T01:35:47.442Z,0.00
2023-10-31T01:36:47.601Z,0.00
2023-10-31T01:37:47.442Z,0.00
2023-10-31T01:38:47.425Z,0.00
2023-10-31T01:39:47.393Z,0.00
2023-10-31T01:40:47.364Z,0.00
2023-10-31T01:41:47.616Z,0.00
2023-10-31T01:42:47.341Z,0.00
2023-10-31T01:43:47.422Z,0.00
2023-10-31T01:44:47.326Z,0.00
2023-10-31T01:45:47.399Z,0.00
2023-10-31T01:46:47.321Z,0.00
2023-10-31T01:47:47.330Z,0.00
2023-10-31T01:48:47.593Z,0.00
2023-10-31T01:49:47.317Z,0.00
2023-10-31T01:50:47.267Z,0.00
2023-10-31T01:51:47.268Z,0.00
2023-10-31T01:52:47.268Z,0.00
2023-10-31T01:53:47.235Z,0.00
2023-10-31T01:54:47.222Z,0.00
2023-10-31T01:55:47.227Z,0.00
2023-10-31T01:56:47.203Z,0.00
2023-10-31T01:57:47.206Z,0.00
2023-10-31T01:58:47.234Z,0.00
2023-10-31T01:59:47.179Z,0.00
2023-10-31T02:00:47.595Z,0.00
2023-10-31T02:01:47.396Z,0.00
2023-10-31T02:02:47.201Z,0.00
2023-10-31T02:03:47.268Z,0.00
2023-10-31T02:04:47.104Z,0.00
2023-10-31T02:05:47.107Z,0.00
2023-10-31T02:06:47.092Z,0.00
2023-10-31T02:07:47.109Z,0.00
2023-10-31T02:08:47.067Z,0.00
2023-10-31T02:09:47.076Z,0.00
2023-10-31T02:10:47.063Z,0.00
2023-10-31T02:11:47.056Z,0.00
2023-10-31T02:12:47.026Z,0.00
2023-10-31T02:13:47.058Z,0.00
2023-10-31T02:14:47.590Z,0.00
2023-10-31T02:15:47.727Z,0.00
2023-10-31T02:16:47.014Z,0.00
2023-10-31T02:17:47.041Z,0.00
2023-10-31T02:18:46.958Z,0.00
2023-10-31T02:19:47.179Z,0.00
2023-10-31T02:20:46.956Z,0.00
2023-10-31T02:21:46.957Z,0.00
2023-10-31T02:22:46.962Z,0.00
2023-10-31T02:23:47.368Z,0.00
2023-10-31T02:24:47.046Z,0.00
2023-10-31T02:25:46.948Z,0.00
2023-10-31T02:26:46.928Z,0.00
2023-10-31T02:27:46.890Z,0.00
2023-10-31T02:28:47.642Z,0.00
2023-10-31T02:29:47.238Z,0.00
2023-10-31T02:30:46.861Z,0.00
2023-10-31T02:31:46.869Z,0.00
2023-10-31T02:32:46.955Z,0.00
2023-10-31T02:33:46.826Z,0.00
2023-10-31T02:34:46.871Z,0.00
2023-10-31T02:35:46.805Z,0.00
2023-10-31T02:36:47.169Z,0.00
2023-10-31T02:37:47.224Z,0.00
2023-10-31T02:38:46.774Z,0.00
2023-10-31T02:39:47.163Z,0.00
2023-10-31T02:40:47.309Z,0.00
2023-10-31T02:41:46.745Z,0.00
2023-10-31T02:42:46.723Z,0.00
2023-10-31T02:43:46.729Z,0.00
2023-10-31T02:44:46.704Z,0.00
2023-10-31T02:45:46.719Z,0.00
2023-10-31T02:46:46.692Z,0.00
2023-10-31T02:47:46.679Z,0.00
2023-10-31T02:48:46.675Z,0.00
2023-10-31T02:49:46.654Z,0.00
2023-10-31T02:50:46.837Z,0.00
2023-10-31T02:51:46.618Z,0.00
2023-10-31T02:52:46.636Z,0.00
2023-10-31T02:53:46.597Z,0.00
2023-10-31T02:54:46.614Z,0.00
2023-10-31T02:55:46.589Z,0.00
2023-10-31T02:56:46.898Z,0.00
2023-10-31T02:57:46.682Z,0.00
2023-10-31T02:58:46.551Z,0.00
2023-10-31T02:59:46.932Z,0.00
2023-10-31T03:00:46.811Z,0.00
2023-10-31T03:01:46.625Z,0.00
2023-10-31T03:02:46.655Z,0.00
2023-10-31T03:03:46.514Z,0.00
2023-10-31T03:04:46.520Z,0.00
2023-10-31T03:05:46.541Z,0.00
2023-10-31T03:06:46.459Z,0.00
2023-10-31T03:07:46.498Z,0.00
2023-10-31T03:08:46.432Z,0.00
2023-10-31T03:09:46.419Z,0.00
2023-10-31T03:10:46.444Z,0.00
2023-10-31T03:11:46.408Z,0.00
2023-10-31T03:12:46.560Z,0.00
2023-10-31T03:13:46.382Z,0.00
2023-10-31T03:14:46.911Z,0.00
2023-10-31T03:15:46.363Z,0.00
2023-10-31T03:16:46.420Z,0.00
2023-10-31T03:17:46.369Z,0.00
2023-10-31T03:18:46.334Z,0.00
2023-10-31T03:19:46.332Z,0.00
2023-10-31T03:20:46.330Z,0.00
2023-10-31T03:21:46.384Z,0.00
2023-10-31T03:22:46.313Z,0.00
2023-10-31T03:23:46.286Z,0.00
2023-10-31T03:24:46.277Z,0.00
2023-10-31T03:25:46.298Z,0.00
2023-10-31T03:26:46.251Z,0.00
2023-10-31T03:27:46.241Z,0.00
2023-10-31T03:28:46.305Z,0.00
2023-10-31T03:29:46.225Z,0.00
2023-10-31T03:30:46.255Z,0.00
2023-10-31T03:31:46.222Z,0.00
2023-10-31T03:32:46.220Z,0.00
2023-10-31T03:33:46.192Z,0.00
2023-10-31T03:34:46.243Z,0.00
2023-10-31T03:35:46.187Z,0.00
2023-10-31T03:36:46.174Z,0.00
2023-10-31T03:37:46.332Z,0.00
2023-10-31T03:38:46.254Z,0.00
2023-10-31T03:39:46.702Z,0.00
2023-10-31T03:40:46.132Z,0.00
2023-10-31T03:41:46.369Z,0.00
2023-10-31T03:42:46.083Z,0.00
2023-10-31T03:43:46.080Z,0.00
2023-10-31T03:44:46.128Z,0.00
2023-10-31T03:45:46.034Z,0.00
2023-10-31T03:46:46.092Z,0.00
2023-10-31T03:47:46.340Z,0.00
2023-10-31T03:48:46.019Z,0.00
2023-10-31T03:49:46.094Z,0.00
2023-10-31T03:50:45.993Z,0.00
2023-10-31T03:51:45.985Z,0.00
2023-10-31T03:52:46.557Z,0.00
2023-10-31T03:53:45.956Z,0.00
2023-10-31T03:54:45.981Z,0.00
2023-10-31T03:55:45.955Z,0.00
2023-10-31T03:56:45.938Z,0.00
2023-10-31T03:57:45.909Z,0.00
2023-10-31T03:58:45.913Z,0.00
2023-10-31T03:59:45.898Z,0.00
2023-10-31T04:00:46.136Z,0.00
2023-10-31T04:01:45.907Z,0.00
2023-10-31T04:02:46.385Z,0.00
2023-10-31T04:03:45.874Z,0.00
2023-10-31T04:04:45.905Z,0.00
2023-10-31T04:05:46.047Z,0.00
2023-10-31T04:06:45.822Z,0.00
2023-10-31T04:07:45.863Z,0.00
2023-10-31T04:08:45.833Z,0.00
2023-10-31T04:09:45.780Z,0.00
2023-10-31T04:10:45.862Z,0.00
2023-10-31T04:11:45.756Z,0.00
2023-10-31T04:12:45.754Z,0.00
2023-10-31T04:13:45.856Z,0.00
2023-10-31T04:14:45.802Z,0.00
2023-10-31T04:15:45.706Z,0.00
2023-10-31T04:16:45.829Z,0.00
2023-10-31T04:17:46.013Z,0.00
2023-10-31T04:18:45.767Z,0.00
2023-10-31T04:19:45.790Z,0.00
2023-10-31T04:20:45.696Z,0.00
2023-10-31T04:21:45.646Z,0.00
2023-10-31T04:22:45.763Z,0.00
2023-10-31T04:23:45.741Z,0.00
2023-10-31T04:24:45.804Z,0.00
2023-10-31T04:25:45.604Z,0.00
2023-10-31T04:26:45.643Z,0.00
2023-10-31T04:27:45.585Z,0.00
2023-10-31T04:28:45.596Z,0.00
2023-10-31T04:29:45.561Z,0.00
2023-10-31T04:30:45.585Z,0.00
2023-10-31T04:31:45.713Z,0.00
2023-10-31T04:32:45.663Z,0.00
2023-10-31T04:33:45.573Z,0.00
2023-10-31T04:34:45.561Z,0.00
2023-10-31T04:35:45.778Z,0.00
2023-10-31T04:36:45.582Z,0.00
2023-10-31T04:37:45.577Z,0.00
2023-10-31T04:38:45.575Z,0.00
2023-10-31T04:39:45.456Z,0.00
2023-10-31T04:40:45.617Z,0.00
2023-10-31T04:41:45.524Z,0.00
2023-10-31T04:42:45.459Z,0.00
2023-10-31T04:43:45.581Z,0.00
2023-10-31T04:44:45.580Z,0.00
2023-10-31T04:45:45.574Z,0.00
2023-10-31T04:46:45.622Z,0.00
2023-10-31T04:47:45.555Z,0.00
2023-10-31T04:48:45.387Z,0.00
2023-10-31T04:49:45.436Z,0.00
2023-10-31T04:50:45.361Z,0.00
2023-10-31T04:51:45.572Z,0.00
2023-10-31T04:52:45.331Z,0.00
2023-10-31T04:53:45.296Z,0.00
2023-10-31T04:54:45.586Z,0.00
2023-10-31T04:55:45.596Z,0.00
2023-10-31T04:56:45.295Z,0.00
2023-10-31T04:57:45.570Z,0.00
2023-10-31T04:58:45.417Z,0.00
2023-10-31T04:59:45.298Z,0.00
2023-10-31T05:00:45.241Z,0.00
2023-10-31T05:01:45.251Z,0.00
2023-10-31T05:02:45.216Z,0.00
2023-10-31T05:03:45.253Z,0.00
2023-10-31T05:04:45.305Z,0.00
2023-10-31T05:05:45.250Z,0.00
2023-10-31T05:06:45.199Z,0.00
2023-10-31T05:07:45.442Z,0.00
2023-10-31T05:08:45.573Z,0.00
2023-10-31T05:09:47.348Z,0.00
2023-10-31T05:10:45.141Z,0.00
2023-10-31T05:11:45.237Z,0.00
2023-10-31T05:12:45.569Z,0.00
2023-10-31T05:13:45.107Z,0.00
2023-10-31T05:14:45.124Z,0.00
2023-10-31T05:15:45.116Z,0.00
2023-10-31T05:16:45.138Z,0.00
2023-10-31T05:17:45.100Z,0.00
2023-10-31T05:18:45.577Z,0.00
2023-10-31T05:19:45.341Z,0.00
2023-10-31T05:20:45.398Z,0.00
2023-10-31T05:21:45.007Z,0.00
2023-10-31T05:22:45.025Z,0.00
2023-10-31T05:23:45.271Z,0.00
2023-10-31T05:24:44.990Z,0.00
2023-10-31T05:25:45.181Z,0.00
2023-10-31T05:26:45.150Z,0.00
2023-10-31T05:27:44.948Z,0.00
2023-10-31T05:28:45.197Z,0.00
2023-10-31T05:29:44.964Z,0.00
2023-10-31T05:30:44.940Z,0.00
2023-10-31T05:31:44.932Z,0.00
2023-10-31T05:32:44.916Z,0.00
2023-10-31T05:33:44.900Z,0.00
2023-10-31T05:34:44.894Z,0.00
2023-10-31T05:35:45.580Z,0.00
2023-10-31T05:36:44.997Z,0.00
2023-10-31T05:37:44.895Z,0.00
2023-10-31T05:38:44.943Z,0.00
2023-10-31T05:39:45.203Z,0.00
2023-10-31T05:40:44.984Z,0.00
2023-10-31T05:41:44.861Z,0.00
2023-10-31T05:42:44.788Z,0.00
2023-10-31T05:43:44.814Z,0.00
2023-10-31T05:44:44.761Z,0.00
2023-10-31T05:45:45.508Z,0.00
2023-10-31T05:46:44.763Z,0.00
2023-10-31T05:47:44.849Z,0.00
2023-10-31T05:48:44.768Z,0.00
2023-10-31T05:49:44.774Z,0.00
2023-10-31T05:50:44.849Z,4.00
2023-10-31T05:51:44.872Z,4.00
2023-10-31T05:52:44.699Z,4.00
2023-10-31T05:53:44.678Z,0.00
2023-10-31T05:54:44.908Z,4.00
2023-10-31T05:55:44.888Z,4.00
2023-10-31T05:56:44.925Z,4.00
2023-10-31T05:57:44.617Z,4.00
2023-10-31T05:58:44.914Z,8.00
2023-10-31T05:59:44.627Z,8.00
2023-10-31T06:00:44.962Z,12.00
2023-10-31T06:01:44.758Z,12.00
2023-10-31T06:02:45.061Z,16.00
2023-10-31T06:03:45.091Z,16.00
2023-10-31T06:04:44.613Z,20.00
2023-10-31T06:05:44.653Z,24.00
2023-10-31T06:06:44.668Z,24.00
2023-10-31T06:07:44.872Z,20.00
2023-10-31T06:08:44.933Z,28.00
2023-10-31T06:09:44.511Z,24.00
2023-10-31T06:10:44.532Z,28.00
2023-10-31T06:11:44.463Z,32.00
2023-10-31T06:12:44.486Z,32.00
2023-10-31T06:13:44.482Z,32.00
2023-10-31T06:14:44.790Z,32.00
2023-10-31T06:15:44.637Z,36.00
2023-10-31T06:16:44.718Z,44.00
2023-10-31T06:17:44.465Z,48.00
2023-10-31T06:18:44.420Z,52.00
2023-10-31T06:19:44.404Z,48.00
2023-10-31T06:20:44.375Z,48.00
2023-10-31T06:21:44.381Z,48.00
2023-10-31T06:22:45.124Z,52.00
2023-10-31T06:23:44.343Z,56.00
2023-10-31T06:24:44.329Z,56.00
2023-10-31T06:25:44.346Z,60.00
2023-10-31T06:26:44.331Z,68.00
2023-10-31T06:27:44.526Z,72.00
2023-10-31T06:28:52.497Z,80.00
2023-10-31T06:29:56.091Z,84.00
2023-10-31T06:30:45.432Z,80.00
2023-10-31T06:31:44.334Z,72.00
2023-10-31T06:32:44.284Z,68.00
2023-10-31T06:33:44.231Z,84.00
2023-10-31T06:34:44.671Z,96.00
2023-10-31T06:35:44.629Z,104.00
2023-10-31T06:36:44.219Z,104.00
2023-10-31T06:37:44.216Z,100.00
2023-10-31T06:38:44.273Z,108.00
2023-10-31T06:39:44.159Z,112.00
2023-10-31T06:40:44.185Z,116.00
2023-10-31T06:41:44.136Z,120.00
2023-10-31T06:42:44.145Z,124.00
2023-10-31T06:43:44.145Z,124.00
2023-10-31T06:44:44.128Z,128.00
2023-10-31T06:45:44.100Z,132.00
2023-10-31T06:46:44.246Z,140.00
2023-10-31T06:47:44.093Z,152.00
2023-10-31T06:48:44.078Z,156.00
2023-10-31T06:49:44.547Z,168.00
2023-10-31T06:50:44.051Z,176.00
2023-10-31T06:51:44.039Z,184.00
2023-10-31T06:52:44.591Z,212.00
2023-10-31T06:53:44.042Z,224.00
2023-10-31T06:54:43.994Z,220.00
2023-10-31T06:55:44.043Z,220.00
2023-10-31T06:56:43.976Z,236.00
2023-10-31T06:57:44.010Z,256.00
2023-10-31T06:58:43.988Z,260.00
2023-10-31T06:59:44.631Z,248.00
2023-10-31T07:00:43.945Z,236.00
2023-10-31T07:01:44.698Z,232.00
2023-10-31T07:02:44.059Z,260.00
2023-10-31T07:03:44.002Z,292.00
2023-10-31T07:04:43.959Z,308.00
2023-10-31T07:05:43.900Z,328.00
2023-10-31T07:06:44.449Z,348.00
2023-10-31T07:07:44.635Z,396.00
2023-10-31T07:08:44.100Z,480.00
2023-10-31T07:09:44.215Z,572.00
2023-10-31T07:10:43.986Z,632.00
2023-10-31T07:11:43.842Z,700.00
2023-10-31T07:12:43.817Z,760.00
2023-10-31T07:13:43.831Z,896.00
2023-10-31T07:14:43.790Z,1052.00
2023-10-31T07:15:43.790Z,1088.00
2023-10-31T07:16:43.766Z,1108.00
2023-10-31T07:17:43.791Z,1344.00
2023-10-31T07:18:43.893Z,1756.00
2023-10-31T07:19:43.743Z,2064.00
2023-10-31T07:20:43.776Z,2228.00
2023-10-31T07:21:43.924Z,2296.00
2023-10-31T07:22:43.697Z,2248.00
2023-10-31T07:23:44.032Z,2228.00
2023-10-31T07:24:44.047Z,2156.00
2023-10-31T07:25:43.681Z,2068.00
2023-10-31T07:26:44.027Z,2052.00
2023-10-31T07:27:43.669Z,2136.00
2023-10-31T07:28:43.642Z,2236.00
2023-10-31T07:29:43.751Z,2420.00
2023-10-31T07:30:43.616Z,2568.00
2023-10-31T07:31:43.636Z,2784.00
2023-10-31T07:32:43.719Z,3008.00
2023-10-31T07:33:43.598Z,2852.00
2023-10-31T07:34:44.048Z,2712.00
2023-10-31T07:35:43.575Z,2608.00
2023-10-31T07:36:43.545Z,2464.00
2023-10-31T07:37:43.569Z,2264.00
2023-10-31T07:38:43.525Z,2068.00
2023-10-31T07:39:43.524Z,1832.00
2023-10-31T07:40:43.516Z,2100.00
2023-10-31T07:41:44.105Z,2224.00
2023-10-31T07:42:43.484Z,2156.00
2023-10-31T07:43:43.499Z,2204.00
2023-10-31T07:44:43.477Z,2492.00
2023-10-31T07:45:43.972Z,2596.00
2023-10-31T07:46:43.446Z,2704.00
2023-10-31T07:47:43.478Z,2940.00
2023-10-31T07:48:43.440Z,3224.00
2023-10-31T07:49:43.411Z,3544.00
2023-10-31T07:50:43.610Z,3764.00
2023-10-31T07:51:43.828Z,3708.00
2023-10-31T07:52:43.429Z,4008.00
2023-10-31T07:53:43.409Z,4320.00
2023-10-31T07:54:43.365Z,4552.00
2023-10-31T07:55:43.351Z,4852.00
2023-10-31T07:56:43.379Z,4920.00
2023-10-31T07:57:43.334Z,4256.00
2023-10-31T07:58:43.358Z,5168.00
2023-10-31T07:59:43.307Z,4476.00
2023-10-31T08:00:43.941Z,4428.00
2023-10-31T08:01:43.345Z,4664.00
2023-10-31T08:02:43.361Z,4648.00
2023-10-31T08:03:43.376Z,5064.00
2023-10-31T08:04:43.254Z,5212.00
2023-10-31T08:05:43.520Z,5380.00
2023-10-31T08:06:45.193Z,6512.00
2023-10-31T08:07:43.233Z,6568.00
2023-10-31T08:08:43.230Z,5644.00
2023-10-31T08:09:43.893Z,5568.00
2023-10-31T08:10:43.209Z,6512.00
2023-10-31T08:11:43.183Z,6960.00
2023-10-31T08:12:43.213Z,7132.00
2023-10-31T08:13:43.193Z,6584.00
2023-10-31T08:14:43.167Z,6804.00
2023-10-31T08:15:44.004Z,7544.00
2023-10-31T08:16:43.141Z,7504.00
2023-10-31T08:17:43.424Z,7900.00
2023-10-31T08:18:43.120Z,7560.00
2023-10-31T08:19:43.100Z,7924.00
2023-10-31T08:20:43.092Z,8316.00
2023-10-31T08:21:43.091Z,7380.00
2023-10-31T08:22:43.053Z,8388.00
2023-10-31T08:23:43.069Z,7444.00
2023-10-31T08:24:43.044Z,6916.00
2023-10-31T08:25:43.220Z,8164.00
2023-10-31T08:26:43.586Z,8536.00
2023-10-31T08:27:43.021Z,9076.00
2023-10-31T08:28:43.016Z,9440.00
2023-10-31T08:29:42.996Z,9700.00
2023-10-31T08:30:42.983Z,10056.00
2023-10-31T08:31:43.082Z,9428.00
2023-10-31T08:32:43.866Z,8564.00
2023-10-31T08:33:42.966Z,7940.00
2023-10-31T08:34:42.932Z,7508.00
2023-10-31T08:35:43.065Z,8348.00
2023-10-31T08:36:42.928Z,8936.00
2023-10-31T08:37:43.489Z,10172.00
2023-10-31T08:38:42.916Z,10772.00
2023-10-31T08:39:42.901Z,10316.00
2023-10-31T08:40:42.960Z,9792.00
2023-10-31T08:41:43.146Z,9224.00
2023-10-31T08:42:42.850Z,8512.00
2023-10-31T08:43:43.604Z,8008.00
2023-10-31T08:44:43.116Z,7880.00
2023-10-31T08:45:42.827Z,7432.00
2023-10-31T08:46:42.847Z,6968.00
2023-10-31T08:47:42.888Z,6944.00
2023-10-31T08:48:42.779Z,6788.00
2023-10-31T08:49:42.808Z,6836.00
2023-10-31T08:50:42.809Z,6972.00
2023-10-31T08:51:42.759Z,6928.00
2023-10-31T08:52:42.876Z,7016.00
2023-10-31T08:53:42.892Z,7004.00
2023-10-31T08:54:42.727Z,7004.00
2023-10-31T08:55:42.953Z,7052.00
2023-10-31T08:56:42.961Z,7336.00
2023-10-31T08:57:42.765Z,7700.00
2023-10-31T08:58:42.690Z,7408.00
2023-10-31T08:59:42.788Z,7444.00
2023-10-31T09:00:43.107Z,7600.00
2023-10-31T09:01:43.237Z,8120.00
2023-10-31T09:02:42.690Z,8072.00
2023-10-31T09:03:42.692Z,7640.00
2023-10-31T09:04:43.015Z,7400.00
2023-10-31T09:05:43.039Z,6680.00
2023-10-31T09:06:42.584Z,6568.00
2023-10-31T09:07:42.593Z,6444.00
2023-10-31T09:08:42.598Z,6736.00
2023-10-31T09:09:42.571Z,7128.00
2023-10-31T09:10:43.071Z,7744.00
2023-10-31T09:11:42.556Z,7628.00
2023-10-31T09:12:42.529Z,7412.00
2023-10-31T09:13:42.554Z,7304.00
2023-10-31T09:14:42.582Z,8096.00
2023-10-31T09:15:42.582Z,7624.00
2023-10-31T09:16:43.089Z,8384.00
2023-10-31T09:17:43.150Z,9048.00
2023-10-31T09:18:42.473Z,8776.00
2023-10-31T09:19:42.646Z,7828.00
2023-10-31T09:20:42.451Z,8268.00
2023-10-31T09:21:42.487Z,7332.00
2023-10-31T09:22:42.423Z,6276.00
2023-10-31T09:23:42.409Z,5620.00
2023-10-31T09:24:44.841Z,5084.00
2023-10-31T09:25:43.248Z,5072.00
2023-10-31T09:26:42.410Z,5392.00
2023-10-31T09:27:42.529Z,5164.00
2023-10-31T09:28:42.361Z,5476.00
2023-10-31T09:29:42.375Z,6464.00
2023-10-31T09:30:45.029Z,6848.00
2023-10-31T09:31:42.523Z,6212.00
2023-10-31T09:32:42.447Z,6108.00
2023-10-31T09:33:42.582Z,6260.00
2023-10-31T09:34:42.287Z,5804.00
2023-10-31T09:35:42.413Z,5776.00
2023-10-31T09:36:44.174Z,5684.00
2023-10-31T09:37:42.285Z,4924.00
2023-10-31T09:38:42.269Z,5116.00
2023-10-31T09:39:42.437Z,5504.00
2023-10-31T09:40:42.269Z,5480.00
2023-10-31T09:41:42.551Z,5488.00
2023-10-31T09:42:42.234Z,5552.00
2023-10-31T09:43:42.533Z,6576.00
2023-10-31T09:44:42.639Z,6180.00
2023-10-31T09:45:42.537Z,6752.00
2023-10-31T09:46:43.025Z,6464.00
2023-10-31T09:47:42.206Z,6028.00
2023-10-31T09:48:43.911Z,6316.00
2023-10-31T09:49:42.477Z,7004.00
2023-10-31T09:50:42.527Z,7468.00
2023-10-31T09:51:42.541Z,7000.00
2023-10-31T09:52:42.098Z,6308.00
2023-10-31T09:53:42.115Z,5972.00
2023-10-31T09:54:43.318Z,5436.00
2023-10-31T09:55:42.191Z,5100.00
2023-10-31T09:56:42.053Z,5272.00
2023-10-31T09:57:42.053Z,6488.00
2023-10-31T09:58:42.149Z,8400.00
2023-10-31T09:59:42.058Z,9296.00
2023-10-31T10:00:42.018Z,8508.00
2023-10-31T10:01:42.020Z,6748.00
2023-10-31T10:02:42.167Z,6244.00
2023-10-31T10:03:42.744Z,6348.00
2023-10-31T10:04:42.539Z,4528.00
2023-10-31T10:05:41.996Z,4264.00
2023-10-31T10:06:43.257Z,4224.00
2023-10-31T10:07:42.092Z,4216.00
2023-10-31T10:08:41.969Z,3616.00
2023-10-31T10:09:42.016Z,3556.00
2023-10-31T10:10:41.909Z,4148.00
2023-10-31T10:11:41.909Z,4504.00
2023-10-31T10:12:42.019Z,4764.00
2023-10-31T10:13:42.077Z,4636.00
2023-10-31T10:14:41.888Z,3940.00
2023-10-31T10:15:41.894Z,3208.00
2023-10-31T10:16:41.843Z,2980.00
2023-10-31T10:17:41.971Z,2972.00
2023-10-31T10:18:41.836Z,2800.00
2023-10-31T10:19:41.821Z,2756.00
2023-10-31T10:20:41.804Z,2788.00
2023-10-31T10:21:41.813Z,2516.00
2023-10-31T10:22:41.801Z,2360.00
2023-10-31T10:23:41.959Z,2508.00
2023-10-31T10:24:41.887Z,2632.00
2023-10-31T10:25:43.787Z,2476.00
2023-10-31T10:26:41.776Z,2000.00
2023-10-31T10:27:41.746Z,1924.00
2023-10-31T10:28:41.712Z,1684.00
2023-10-31T10:29:41.745Z,1604.00
2023-10-31T10:30:41.701Z,1656.00
2023-10-31T10:31:41.702Z,1864.00
2023-10-31T10:32:41.844Z,1920.00
2023-10-31T10:33:41.671Z,1976.00
2023-10-31T10:34:41.739Z,1932.00
2023-10-31T10:35:41.907Z,2304.00
2023-10-31T10:36:41.635Z,2548.00
2023-10-31T10:37:41.634Z,2412.00
2023-10-31T10:38:42.079Z,2548.00
2023-10-31T10:39:41.603Z,2572.00
2023-10-31T10:40:41.585Z,2424.00
2023-10-31T10:41:41.581Z,2328.00
2023-10-31T10:42:41.564Z,2488.00
2023-10-31T10:43:41.879Z,2648.00
2023-10-31T10:44:42.126Z,2668.00
2023-10-31T10:45:41.686Z,2656.00
2023-10-31T10:46:41.533Z,2780.00
2023-10-31T10:47:41.611Z,3612.00
2023-10-31T10:48:41.515Z,4908.00
2023-10-31T10:49:41.496Z,6016.00
2023-10-31T10:50:41.493Z,7304.00
2023-10-31T10:51:41.482Z,8544.00
2023-10-31T10:52:41.465Z,8372.00
2023-10-31T10:53:41.528Z,8392.00
2023-10-31T10:54:41.447Z,8452.00
2023-10-31T10:55:41.445Z,9256.00
2023-10-31T10:56:41.495Z,8668.00
2023-10-31T10:57:41.416Z,8308.00
2023-10-31T10:58:41.923Z,7916.00
2023-10-31T10:59:41.401Z,8376.00
2023-10-31T11:00:41.359Z,8888.00
2023-10-31T11:01:41.433Z,6088.00
2023-10-31T11:02:41.411Z,5704.00
2023-10-31T11:03:41.370Z,6696.00
2023-10-31T11:04:41.333Z,5600.00
2023-10-31T11:05:41.319Z,5768.00
2023-10-31T11:06:41.456Z,6444.00
2023-10-31T11:07:41.299Z,5880.00
2023-10-31T11:08:41.317Z,4824.00
2023-10-31T11:09:41.276Z,4852.00
2023-10-31T11:10:41.278Z,6920.00
2023-10-31T11:11:41.265Z,8344.00
2023-10-31T11:12:41.262Z,8004.00
2023-10-31T11:13:41.318Z,7948.00
2023-10-31T11:14:41.867Z,7464.00
2023-10-31T11:15:42.001Z,7056.00
2023-10-31T11:16:41.279Z,6680.00
2023-10-31T11:17:41.258Z,5472.00
2023-10-31T11:18:41.196Z,5320.00
2023-10-31T11:19:41.183Z,5048.00
2023-10-31T11:20:41.495Z,4376.00
2023-10-31T11:21:41.166Z,4396.00
2023-10-31T11:22:41.199Z,5136.00
2023-10-31T11:23:42.007Z,5540.00
2023-10-31T11:24:41.129Z,5416.00
2023-10-31T11:25:41.117Z,5396.00
2023-10-31T11:26:41.100Z,5312.00
2023-10-31T11:27:41.925Z,4628.00
2023-10-31T11:28:41.093Z,3796.00
2023-10-31T11:29:41.159Z,3952.00
2023-10-31T11:30:41.092Z,3940.00
2023-10-31T11:31:41.084Z,3932.00
2023-10-31T11:32:41.063Z,3840.00
2023-10-31T11:33:41.027Z,3336.00
2023-10-31T11:34:41.030Z,3132.00
2023-10-31T11:35:41.002Z,3408.00
2023-10-31T11:36:41.489Z,3452.00
2023-10-31T11:37:41.118Z,3080.00
2023-10-31T11:38:40.986Z,2952.00
2023-10-31T11:39:40.943Z,2976.00
2023-10-31T11:40:41.201Z,2972.00
2023-10-31T11:41:41.034Z,2436.00
2023-10-31T11:42:40.930Z,2280.00
2023-10-31T11:43:41.934Z,2600.00
2023-10-31T11:44:40.925Z,2904.00
2023-10-31T11:45:40.873Z,2844.00
2023-10-31T11:46:41.409Z,2260.00
2023-10-31T11:47:41.318Z,2260.00
2023-10-31T11:48:41.704Z,2304.00
2023-10-31T11:49:41.736Z,2448.00
2023-10-31T11:50:40.964Z,2748.00
2023-10-31T11:51:40.852Z,3232.00
2023-10-31T11:52:40.841Z,3828.00
2023-10-31T11:53:40.859Z,4188.00
2023-10-31T11:54:40.839Z,3976.00
2023-10-31T11:55:40.792Z,3840.00
2023-10-31T11:56:40.861Z,4260.00
2023-10-31T11:57:40.830Z,4720.00
2023-10-31T11:58:40.774Z,4648.00
2023-10-31T11:59:40.750Z,4476.00
2023-10-31T12:00:40.760Z,4936.00
2023-10-31T12:01:40.799Z,5168.00
2023-10-31T12:02:40.824Z,4296.00
2023-10-31T12:03:40.963Z,3848.00
2023-10-31T12:04:40.709Z,3840.00
2023-10-31T12:05:40.717Z,3776.00
2023-10-31T12:06:40.692Z,3220.00
2023-10-31T12:07:40.819Z,2776.00
2023-10-31T12:08:41.074Z,2820.00
2023-10-31T12:09:40.644Z,3148.00
2023-10-31T12:10:40.663Z,3208.00
2023-10-31T12:11:40.645Z,3208.00
2023-10-31T12:12:40.607Z,3344.00
2023-10-31T12:13:40.792Z,3420.00
2023-10-31T12:14:41.384Z,3248.00
2023-10-31T12:15:40.602Z,3128.00
2023-10-31T12:16:41.088Z,3080.00
2023-10-31T12:17:40.609Z,3256.00
2023-10-31T12:18:40.562Z,4136.00
2023-10-31T12:19:40.543Z,6728.00
2023-10-31T12:20:40.529Z,8172.00
2023-10-31T12:21:40.668Z,7620.00
2023-10-31T12:22:41.075Z,5920.00
2023-10-31T12:23:40.491Z,6584.00
2023-10-31T12:24:40.499Z,5924.00
2023-10-31T12:25:40.475Z,5160.00
2023-10-31T12:26:40.475Z,4608.00
2023-10-31T12:27:40.450Z,4192.00
2023-10-31T12:28:40.491Z,3840.00
2023-10-31T12:29:40.594Z,3780.00
2023-10-31T12:30:40.439Z,3920.00
2023-10-31T12:31:40.423Z,3940.00
2023-10-31T12:32:40.548Z,4020.00
2023-10-31T12:33:40.397Z,4532.00
2023-10-31T12:34:40.384Z,5404.00
2023-10-31T12:35:42.425Z,6456.00
2023-10-31T12:36:40.488Z,6916.00
2023-10-31T12:37:40.352Z,6040.00
2023-10-31T12:38:40.347Z,5536.00
2023-10-31T12:39:40.460Z,5352.00
2023-10-31T12:40:40.344Z,4988.00
2023-10-31T12:41:40.328Z,4540.00